createdAt,value
2019-02-24T00:04:06.613Z,10.90
2019-02-24T00:09:08.670Z,10.70
2019-02-24T00:14:10.405Z,11.67
2019-02-24T00:19:12.424Z,10.27
2019-02-24T00:24:14.074Z,11.00
2019-02-24T00:29:15.747Z,11.80
2019-02-24T00:34:17.922Z,12.07
2019-02-24T00:39:19.730Z,10.27
2019-02-24T00:44:21.417Z,10.07
2019-02-24T00:49:23.034Z,9.17
2019-02-24T00:54:24.697Z,12.73
2019-02-24T00:59:26.424Z,11.60
2019-02-24T01:04:28.128Z,12.90
2019-02-24T01:09:29.825Z,12.03
2019-02-24T01:14:31.459Z,11.17
2019-02-24T01:19:33.221Z,10.07
2019-02-24T01:24:35.255Z,12.43
2019-02-24T01:29:39.960Z,11.10
2019-02-24T01:34:41.640Z,10.97
2019-02-24T01:39:43.394Z,11.30
2019-02-24T01:44:45.675Z,11.90
2019-02-24T01:49:47.452Z,11.23
2019-02-24T01:54:49.188Z,11.60
2019-02-24T01:59:51.015Z,11.97
2019-02-24T02:04:52.744Z,10.97
2019-02-24T02:09:54.460Z,11.67
2019-02-24T02:14:56.187Z,10.90
2019-02-24T02:19:57.991Z,11.60
2019-02-24T02:24:59.791Z,11.10
2019-02-24T02:30:02.054Z,15.77
2019-02-24T02:35:05.972Z,11.30
2019-02-24T02:40:08.291Z,11.37
2019-02-24T02:45:10.167Z,10.90
2019-02-24T02:50:12.387Z,12.07
2019-02-24T02:55:14.062Z,15.13
2019-02-24T03:00:33.089Z,12.60
2019-02-24T03:05:34.974Z,9.07
2019-02-24T03:10:36.633Z,11.60
2019-02-24T03:15:38.323Z,13.27
2019-02-24T03:20:40.335Z,12.33
2019-02-24T03:25:41.975Z,9.93
2019-02-24T03:30:43.798Z,9.90
2019-02-24T03:35:45.983Z,11.33
2019-02-24T03:40:48.346Z,14.27
2019-02-24T03:45:50.124Z,12.17
2019-02-24T03:50:51.807Z,11.10
2019-02-24T03:55:53.808Z,16.03
2019-02-24T04:00:55.719Z,12.20
2019-02-24T04:05:57.411Z,15.10
2019-02-24T04:10:59.059Z,11.23
2019-02-24T04:16:00.911Z,12.53
2019-02-24T04:21:02.598Z,11.60
2019-02-24T04:26:04.305Z,11.37
2019-02-24T04:31:06.159Z,12.47
2019-02-24T04:36:07.835Z,11.30
2019-02-24T04:41:09.835Z,10.47
2019-02-24T04:46:11.592Z,11.60
2019-02-24T04:51:13.391Z,11.47
2019-02-24T04:56:15.733Z,10.27
2019-02-24T05:01:17.533Z,11.60
2019-02-24T05:06:19.644Z,11.00
2019-02-24T05:11:21.772Z,11.20
2019-02-24T05:16:23.497Z,12.23
2019-02-24T05:21:25.662Z,12.37
2019-02-24T05:26:27.978Z,10.80
2019-02-24T05:31:29.781Z,11.33
2019-02-24T05:36:31.586Z,13.37
2019-02-24T05:41:33.460Z,11.80
2019-02-24T05:46:35.127Z,12.87
2019-02-24T05:51:37.211Z,12.57
2019-02-24T05:56:38.903Z,14.47
2019-02-24T06:01:40.581Z,12.27
2019-02-24T06:06:42.252Z,12.40
2019-02-24T06:11:43.927Z,13.30
2019-02-24T06:16:45.894Z,11.60
2019-02-24T06:21:47.609Z,11.47
2019-02-24T06:26:49.346Z,17.90
2019-02-24T06:31:51.046Z,10.83
2019-02-24T06:36:53.234Z,12.30
2019-02-24T06:41:55.009Z,11.47
2019-02-24T06:46:58.313Z,13.67
2019-02-24T06:52:00.147Z,14.87
2019-02-24T06:57:01.850Z,11.37
2019-02-24T07:02:04.469Z,14.30
2019-02-24T07:07:06.204Z,12.37
2019-02-24T07:12:07.875Z,14.50
2019-02-24T07:17:10.132Z,12.60
2019-02-24T07:22:11.803Z,19.17
2019-02-24T07:27:13.517Z,16.80
2019-02-24T07:32:15.196Z,21.90
2019-02-24T07:37:16.816Z,22.20
2019-02-24T07:42:18.564Z,20.60
2019-02-24T07:47:20.256Z,15.50
2019-02-24T07:52:21.954Z,14.73
2019-02-24T07:57:23.660Z,15.20
2019-02-24T08:02:25.343Z,14.80
2019-02-24T08:07:27.040Z,15.17
2019-02-24T08:12:28.704Z,16.43
2019-02-24T08:17:30.370Z,13.67
2019-02-24T08:22:32.125Z,15.37
2019-02-24T08:27:33.828Z,16.57
2019-02-24T08:32:36.020Z,15.70
2019-02-24T08:37:37.924Z,21.63
2019-02-24T08:42:40.342Z,21.97
2019-02-24T08:47:42.043Z,18.90
2019-02-24T08:52:44.052Z,24.37
2019-02-24T08:57:45.699Z,23.23
2019-02-24T09:02:47.450Z,22.17
2019-02-24T09:07:49.456Z,24.13
2019-02-24T09:12:51.586Z,20.40
2019-02-24T09:17:53.678Z,24.70
2019-02-24T09:22:55.368Z,23.13
2019-02-24T09:27:57.016Z,21.63
2019-02-24T09:32:59.072Z,27.23
2019-02-24T09:38:01.500Z,19.80
2019-02-24T09:43:03.424Z,22.47
2019-02-24T09:48:05.102Z,24.20
2019-02-24T09:53:06.791Z,19.50
2019-02-24T09:58:08.479Z,20.73
2019-02-24T10:03:10.279Z,25.87
2019-02-24T10:08:11.885Z,19.17
2019-02-24T10:13:13.979Z,20.13
2019-02-24T10:18:16.183Z,20.67
2019-02-24T10:23:17.769Z,26.50
2019-02-24T10:28:19.771Z,27.90
2019-02-24T10:33:21.901Z,22.73
2019-02-24T10:38:23.675Z,22.40
2019-02-24T10:43:26.246Z,27.63
2019-02-24T10:48:28.555Z,28.60
2019-02-24T10:53:34.539Z,30.67
2019-02-24T10:58:39.433Z,29.37
2019-02-24T11:03:41.235Z,29.20
2019-02-24T11:08:43.229Z,33.40
2019-02-24T11:13:47.807Z,27.17
2019-02-24T11:18:49.552Z,31.20
2019-02-24T11:23:51.229Z,31.60
2019-02-24T11:28:53.597Z,26.17
2019-02-24T11:33:55.898Z,31.07
2019-02-24T11:38:58.043Z,31.30
2019-02-24T11:44:01.637Z,30.77
2019-02-24T11:49:06.332Z,33.07
2019-02-24T11:54:10.205Z,32.50
2019-02-24T11:59:16.666Z,36.97
2019-02-24T12:04:22.146Z,33.53
2019-02-24T12:09:24.278Z,36.00
2019-02-24T12:14:29.551Z,34.00
2019-02-24T12:19:38.266Z,32.40
2019-02-24T12:24:43.821Z,36.80
2019-02-24T12:29:47.744Z,32.20
2019-02-24T12:34:52.424Z,34.30
2019-02-24T12:39:54.415Z,35.50
2019-02-24T12:44:56.407Z,32.57
2019-02-24T12:50:03.113Z,36.30
2019-02-24T12:55:03.190Z,37.10
2019-02-24T13:00:21.075Z,35.40
2019-02-24T13:05:23.605Z,27.13
2019-02-24T13:10:25.288Z,32.97
2019-02-24T13:15:36.477Z,33.27
2019-02-24T13:20:38.470Z,35.87
2019-02-24T13:25:40.172Z,30.10
2019-02-24T13:30:45.000Z,33.07
2019-02-24T13:35:46.690Z,30.30
2019-02-24T13:40:49.092Z,31.60
2019-02-24T13:45:51.080Z,36.73
2019-02-24T13:50:52.856Z,36.33
2019-02-24T13:55:54.469Z,32.10
2019-02-24T14:00:56.203Z,31.73
2019-02-24T14:05:58.011Z,32.33
2019-02-24T14:11:08.172Z,31.80
2019-02-24T14:16:11.743Z,33.97
2019-02-24T14:21:17.922Z,30.87
2019-02-24T14:26:20.457Z,34.93
2019-02-24T14:31:22.631Z,33.83
2019-02-24T14:36:28.005Z,33.90
2019-02-24T14:41:32.139Z,34.20
2019-02-24T14:46:41.330Z,32.10
2019-02-24T14:51:43.185Z,33.00
2019-02-24T14:56:46.136Z,36.57
2019-02-24T15:01:52.957Z,32.30
2019-02-24T15:06:58.578Z,30.00
2019-02-24T15:12:03.482Z,33.17
2019-02-24T15:17:05.445Z,33.70
2019-02-24T15:22:07.708Z,30.77
2019-02-24T15:27:09.515Z,29.67
2019-02-24T15:32:11.676Z,28.77
2019-02-24T15:37:13.788Z,30.83
2019-02-24T15:42:16.337Z,34.40
2019-02-24T15:47:18.153Z,32.10
2019-02-24T15:52:19.851Z,33.23
2019-02-24T15:57:21.954Z,32.03
2019-02-24T16:02:23.737Z,41.50
2019-02-24T16:07:26.847Z,36.80
2019-02-24T16:12:28.628Z,34.27
2019-02-24T16:17:30.375Z,35.00
2019-02-24T16:22:32.458Z,32.20
2019-02-24T16:27:36.011Z,35.17
2019-02-24T16:32:48.878Z,34.57
2019-02-24T16:37:52.031Z,33.97
2019-02-24T16:42:58.465Z,36.70
2019-02-24T16:48:01.623Z,37.30
2019-02-24T16:53:05.830Z,38.63
2019-02-24T16:58:07.537Z,37.43
2019-02-24T17:03:10.020Z,36.80
2019-02-24T17:08:12.083Z,38.93
2019-02-24T17:13:13.885Z,39.57
2019-02-24T17:18:16.187Z,39.37
2019-02-24T17:23:18.343Z,37.47
2019-02-24T17:28:20.166Z,39.50
2019-02-24T17:33:29.661Z,37.17
2019-02-24T17:38:28.271Z,39.60
2019-02-24T17:43:30.354Z,39.63
2019-02-24T17:48:32.435Z,40.70
2019-02-24T17:53:34.743Z,39.80
2019-02-24T17:58:37.054Z,41.10
2019-02-24T18:03:39.992Z,25.70
2019-02-24T18:08:42.762Z,19.00
2019-02-24T18:13:45.503Z,38.97
2019-02-24T18:18:47.835Z,37.73
2019-02-24T18:23:50.009Z,38.70
2019-02-24T18:28:52.660Z,40.47
2019-02-24T18:33:54.924Z,43.00
2019-02-24T18:38:57.488Z,27.17
2019-02-24T18:49:09.081Z,37.73
2019-02-24T18:54:12.795Z,26.90
2019-02-24T18:59:15.835Z,32.67
2019-02-24T19:04:20.250Z,34.97
2019-02-24T19:09:23.529Z,33.03
2019-02-24T19:14:26.173Z,33.83
2019-02-24T19:19:29.501Z,43.67
2019-02-24T19:24:31.755Z,36.03
2019-02-24T19:29:34.129Z,43.20
2019-02-24T19:34:36.318Z,23.97
2019-02-24T19:39:39.776Z,21.07
2019-02-24T19:44:42.143Z,32.80
2019-02-24T19:49:44.343Z,36.67
2019-02-24T19:54:46.560Z,27.43
2019-02-24T19:59:48.539Z,25.17
2019-02-24T20:04:51.660Z,24.90
2019-02-24T20:09:53.808Z,43.17
2019-02-24T20:14:55.867Z,38.40
2019-02-24T20:19:57.784Z,41.97
2019-02-24T20:24:59.536Z,39.07
2019-02-24T20:35:06.542Z,39.07
2019-02-24T20:40:10.046Z,43.57
2019-02-24T20:45:14.533Z,28.00
2019-02-24T20:50:25.928Z,37.27
2019-02-24T20:55:27.754Z,26.37
2019-02-24T21:00:35.921Z,27.53
2019-02-24T21:05:37.591Z,24.60
2019-02-24T21:10:39.332Z,20.67
2019-02-24T21:15:40.954Z,21.60
2019-02-24T21:20:42.596Z,38.00
2019-02-24T21:25:44.361Z,31.13
2019-02-24T21:30:46.063Z,32.93
2019-02-24T21:35:50.120Z,25.03
2019-02-24T21:40:51.815Z,33.47
2019-02-24T21:45:53.515Z,29.73
2019-02-24T21:50:55.219Z,44.47
2019-02-24T21:55:57.259Z,29.70
2019-02-24T22:00:58.926Z,33.70
2019-02-24T22:06:00.590Z,47.67
2019-02-24T22:11:02.337Z,38.50
2019-02-24T22:16:04.288Z,32.80
2019-02-24T22:21:05.921Z,25.93
2019-02-24T22:26:07.564Z,22.00
2019-02-24T22:31:09.411Z,26.00
2019-02-24T22:36:11.522Z,19.73
2019-02-24T22:41:13.289Z,21.33
2019-02-24T22:46:15.130Z,22.60
2019-02-24T22:51:16.996Z,25.13
2019-02-24T22:56:18.663Z,18.97
2019-02-24T23:01:22.461Z,22.20
2019-02-24T23:06:24.221Z,39.97
2019-02-24T23:11:25.908Z,29.63
2019-02-24T23:16:28.116Z,39.47
2019-02-24T23:21:29.715Z,35.47
2019-02-24T23:26:31.408Z,28.63
2019-02-24T23:31:33.512Z,26.43
2019-02-24T23:36:35.317Z,29.40
2019-02-24T23:41:37.532Z,32.07
2019-02-24T23:46:39.733Z,31.13
2019-02-24T23:51:42.355Z,27.63
2019-02-24T23:56:44.065Z,30.30
